ナンディ国際空港の過去48時間の天気

ナンディ国際空港 (Nandi)

現在時刻: 2/28 02:32 +12 (2/27 14:32 UTC) 以下の時間は現地時間です。

過去48時間のMETAR気象情報
時間 風向 風速(m/s) 視程 気温(℃) 湿度(%) 気圧(hPa) 天気現象
28 02:00 東南東 2 10km以上 27 84 1009
28 01:00 南東 3 10km以上 27 84 1010
28 00:00 南南東 4 10km以上 28 79 1010 弱いしゅう雨
27 23:00 南東 3 10km以上 28 79 1010
27 22:00 南南東 3 10km以上 28 84 1010
27 21:00 南東 2 10km以上 28 84 1010
27 20:00 東南東 3 10km以上 28 84 1009
27 19:00 4 10km以上 29 79 1008
27 18:00 4 10km以上 30 75 1008
27 17:00 西 3 10km以上 30 75 1007
27 16:00 西 5 10km以上 31 66 1008
27 15:00 西北西 5 10km以上 31 70 1008
27 14:00 西 7 10km以上 32 67 1008
27 13:00 西 6 10km以上 32 67 1009
27 12:00 西北西 6 10km以上 31 66 1009
27 11:00 西 5 10km以上 32 63 1009
27 10:00 不定 1 10km以上 32 63 1010
27 09:00 2 10km以上 30 70 1010
27 08:00 東南東 2 10km以上 28 79 1010
27 07:00 不定 1 10km以上 25 89 1009
27 06:00 不定 1 10km以上 25 89 1009
27 05:00 不定 1 10km以上 25 89 1008
27 04:00 不定 1 10km以上 25 89 1008
27 03:00 不定 1 10km以上 25 94 1008
27 02:00 不定 1 10km以上 26 89 1009
27 01:00 不定 1 10km以上 26 89 1009
27 00:00 不定 1 10km以上 26 89 1009
26 23:00 3 10km以上 26 89 1010
26 22:00 3 10km以上 27 84 1010
26 21:00 5 10km以上 27 84 1009
26 20:00 南東 5 10km以上 28 84 1009
26 19:00 4 10km以上 29 79 1008
26 18:00 3 10km以上 31 66 1007
26 17:00 南南東 3 10km以上 32 63 1006
26 16:00 不定 1 10km以上 31 70 1006
26 15:00 北西 6 10km以上 32 63 1006
26 14:00 西北西 6 10km以上 32 71 1006
26 13:00 西北西 7 10km以上 31 66 1007
26 12:00 西 6 10km以上 31 66 1008
26 11:00 西北西 6 10km以上 31 70 1008
26 10:00 北東 2 10km以上 31 62 1008
26 09:00 不定 1 10km以上 30 70 1009
26 08:00 2 10km以上 28 79 1009
26 07:00 東南東 2 10km以上 25 89 1008
26 06:00 2 10km以上 26 89 1008
26 05:00 東南東 2 10km以上 26 89 1008
26 04:00 2 10km以上 26 89 1008
26 03:00 東南東 2 10km以上 26 89 1008
NFFN 271400Z 12004KT 9999 SCT028 SCT048 27/24 Q1009 NOSIG
NFFN 271300Z 13006KT 9999 SCT028 SCT048 27/24 Q1010 NOSIG
NFFN 271200Z 16008KT 9999 -SHRA SCT028 SCT048 28/24 Q1010 NOSIG
NFFN 271100Z 14005KT 9999 FEW030 SCT300 28/24 Q1010 NOSIG
NFFN 271000Z 16005KT 9999 FEW030 SCT300 28/25 Q1010 NOSIG
NFFN 270900Z 13004KT 9999 SCT030 28/25 Q1010 NOSIG
NFFN 270800Z 12006KT 9999 SCT030 28/25 Q1009 NOSIG
NFFN 270700Z 17008KT 9999 SCT028 SCT048 29/25 Q1008 NOSIG
NFFN 270600Z 17007KT 9999 SCT028 SCT300 30/25 Q1008 NOSIG
NFFN 270500Z 26006KT 9999 FEW020CB SCT026TCU BKN048 30/25 Q1007 NOSIG
NFFN 270400Z 27009KT 9999 FEW020CB SCT026TCU BKN300 31/24 Q1008 TEMPO 5000 TSRA
NFFN 270300Z 29010KT 9999 FEW020CB SCT026TCU 31/25 Q1008 NOSIG
NFFN 270200Z 28013KT 9999 SCT026TCU SCT047 BKN300 32/25 Q1008 TEMPO 0230/0400 5000 TSRA FEW018CB
NFFN 270100Z 27012KT 9999 SCT028TCU 32/25 Q1009 FM0200 29012KT 9999 FEW020CB SCT025 BKN045
NFFN 270000Z 30012KT 9999 SCT028TCU SCT300 31/24 Q1009 NOSIG
NFFN 262300Z 28009KT 9999 SCT030 SCT300 32/24 Q1009 NOSIG
NFFN 262200Z VRB02KT 9999 FEW030 SCT300 32/24 Q1010 NOSIG
NFFN 262100Z 10003KT 9999 FEW030 SCT300 30/24 Q1010 NOSIG
NFFN 262000Z 12003KT 9999 FEW030 SCT300 28/24 Q1010 NOSIG
NFFN 261900Z VRB02KT 9999 FEW030 SCT300 25/23 Q1009 NOSIG
NFFN 261800Z VRB02KT 9999 FEW030 SCT300 25/23 Q1009 NOSIG
NFFN 261700Z VRB02KT 9999 FEW030 25/23 Q1008 NOSIG
NFFN 261600Z VRB02KT 9999 FEW030 25/23 Q1008 NOSIG
NFFN 261500Z VRB01KT 9999 FEW030 25/24 Q1008 NOSIG
NFFN 261400Z VRB01KT 9999 FEW030 26/24 Q1009 NOSIG
NFFN 261300Z VRB01KT 9999 FEW030 26/24 Q1009 NOSIG
NFFN 261200Z VRB01KT 9999 FEW030 26/24 Q1009 NOSIG
NFFN 261100Z 17005KT 9999 FEW030 26/24 Q1010 NOSIG
NFFN 261000Z 18006KT 9999 FEW030 27/24 Q1010 NOSIG
NFFN 260900Z 17009KT 9999 SCT026 SCT048 27/24 Q1009 NOSIG
NFFN 260800Z 13009KT 9999 SCT026 SCT048 28/25 Q1009 NOSIG
NFFN 260700Z 19007KT 9999 SCT026 SCT048 29/25 Q1008 NOSIG
NFFN 260600Z 18006KT 9999 FEW020CB SCT026TCU BKN048 31/24 Q1007 TEMPO 5000 TSRA
NFFN 260500Z 16006KT 9999 FEW020CB SCT026TCU 32/24 Q1006 TEMPO 5000 TSRA
NFFN 260400Z VRB02KT 9999 FEW020CB SCT026TCU BKN048 31/25 Q1006 TEMPO 5000 TSRA
NFFN 260300Z 31012KT 9999 FEW018CB SCT026TCU BKN046 32/24 Q1006 TEMPO 0330/0500 5000 TSRA
NFFN 260200Z 30012KT 9999 FEW018CB FEW027TCU SCT047 32/26 Q1006 NOSIG
NFFN 260100Z 29013KT 9999 SCT028TCU SCT050 31/24 Q1007 TEMPO 0200/0300 7000 TSRA FEW018CB
NFFN 260000Z 28011KT 9999 SCT028TCU SCT050 31/24 Q1008 NOSIG
NFFN 252300Z 29011KT 9999 SCT030 SCT050 31/25 Q1008 NOSIG
NFFN 252200Z 05003KT 9999 SCT030 SCT300 31/23 Q1008 NOSIG
NFFN 252100Z VRB02KT 9999 FEW030 SCT300 30/24 Q1009 NOSIG
NFFN 252000Z 10004KT 9999 FEW030 28/24 Q1009 NOSIG
NFFN 251900Z 12003KT 9999 FEW030 SCT300 25/23 Q1008 NOSIG
NFFN 251800Z 10003KT 9999 FEW030 SCT050 26/24 Q1008 NOSIG
NFFN 251700Z 11003KT 9999 FEW030 SCT050 26/24 Q1008 NOSIG
NFFN 251600Z 09003KT 9999 FEW030 SCT050 26/24 Q1008 NOSIG
NFFN 251500Z 12004KT 9999 FEW030 SCT050 26/24 Q1008 NOSIG